• Join FlightAware (Why Join?)
  • Login
  • US Flag 
11:31PM EST


 

Airport Tracker/Info


-or-


 

Live Flight TrackerFlight Track Log ✈ N554 ✈ 08-Jul-2014 ✈ GA04 - KPIE

Flight Track Log - Related Links

Times and Time Zones

All times are in EDT time to prevent confusion due to time zone crossing. See the N554 flight status page for this flight to view local times or setup timezone preferences in your user account.

Time Position Orientation Groundspeed Altitude Reporting Facility
EDT Latitude Longitude Course Direction KTS MPH feet Rate Location/Type
12:01PM 33.2833 -84.1333 180° South 108 124 2,900  Level Atlanta TRACON
12:02PM 33.2500 -84.1333 180° South 106 122 3,500 540 Climbing Atlanta TRACON
12:03PM 33.2333 -84.1167 140° Southeast 112 129 4,000 480 Climbing Atlanta TRACON
12:04PM 33.2000 -84.1167 180° South 119 137 4,500 480 Climbing Atlanta TRACON
12:05PM 33.1667 -84.1000 157° South 116 133 5,000 420 Climbing Atlanta TRACON
12:06PM 33.1333 -84.1000 180° South 120 138 5,400 420 Climbing Atlanta TRACON
12:07PM 33.1000 -84.0833 157° South 124 143 5,900 420 Climbing Atlanta TRACON
12:08PM 33.0833 -84.0833 180° South 124 143 6,200 360 Climbing Atlanta TRACON
12:09PM 33.0333 -84.0667 164° South 124 143 6,700 360 Climbing Atlanta TRACON
12:10PM 33.0167 -84.0500 140° Southeast 126 145 7,000 120 Climbing Atlanta TRACON
12:11PM 32.9667 -84.0500 180° South 135 155 7,000  Level Atlanta TRACON
12:12PM 32.9333 -84.0333 157° South 146 168 7,000  Level Atlanta TRACON
12:13PM 32.9000 -84.0167 157° South 142 163 7,000  Level Atlanta TRACON
12:14PM 32.8500 -84.0000 164° South 146 168 7,000  Level Atlanta TRACON
12:15PM 32.8167 -84.0000 180° South 144 166 7,000  Level Atlanta TRACON
12:16PM 32.7833 -83.9833 157° South 144 166 7,000 -60 Level Atlanta TRACON
12:17PM 32.7500 -83.9667 157° South 144 166 6,900 -60 Descending Atlanta TRACON
12:18PM 32.7000 -83.9667 180° South 140 161 6,900  Level Atlanta TRACON
12:19PM 32.6667 -83.9500 157° South 144 166 6,900  Level Atlanta TRACON
12:20PM 32.6333 -83.9333 157° South 144 166 6,900  Level Atlanta TRACON
12:21PM 32.5833 -83.9333 180° South 148 170 6,900  Level Atlanta TRACON
12:22PM 32.5500 -83.9167 157° South 144 166 6,900  Level Atlanta TRACON
12:23PM 32.5167 -83.9000 157° South 138 159 6,900  Level Atlanta TRACON
12:24PM 32.4833 -83.8833 157° South 140 161 6,900  Level Atlanta TRACON
12:25PM 32.4333 -83.8833 180° South 145 167 6,900  Level Atlanta TRACON
12:26PM 32.4000 -83.8667 157° South 142 163 7,000  Climbing Atlanta TRACON
12:27PM 32.3667 -83.8500 157° South 143 165 6,900 -60 Descending Atlanta TRACON
12:28PM 32.3333 -83.8500 180° South 144 166 6,900  Level Atlanta TRACON
12:29PM 32.2833 -83.8333 164° South 145 167 6,900 60 Level Atlanta TRACON
12:29PM 32.2592 -83.8286 171° South 143 165 7,000 60 Climbing Jacksonville Center
12:30PM 32.2217 -83.8183 167° South 155 178 7,000  Level Jacksonville Center
12:31PM 32.1800 -83.8033 163° South 155 178 7,000  Level Jacksonville Center
12:32PM 32.1425 -83.7931 167° South 150 173 7,000  Level Jacksonville Center
12:33PM 32.1028 -83.7803 165° South 145 167 7,000  Level Jacksonville Center
12:34PM 32.0653 -83.7703 167° South 145 167 7,000  Level Jacksonville Center
12:35PM 32.0278 -83.7575 164° South 145 167 7,000  Level Jacksonville Center
12:36PM 31.9883 -83.7450 165° South 145 167 7,000  Level Jacksonville Center
12:37PM 31.9486 -83.7347 168° South 145 167 7,000  Level Jacksonville Center
12:38PM 31.9111 -83.7222 164° South 145 167 7,000  Level Jacksonville Center
12:39PM 31.8717 -83.7122 168° South 145 167 7,000  Level Jacksonville Center
12:40PM 31.8319 -83.6994 165° South 145 167 7,000  Level Jacksonville Center
12:41PM 31.8092 -83.6944 169° South 141 162 7,000  Level Jacksonville Center
12:41PM 31.8028 -83.6919 162° South 145 167 7,000  Level Jacksonville Center
12:42PM 31.7694 -83.6844 169° South 142 163 7,000  Level Jacksonville Center
12:42PM 31.7592 -83.6794 158° South 145 167 7,000  Level Jacksonville Center
12:43PM 31.7342 -83.6717 165° South 142 163 7,000  Level Jacksonville Center
12:43PM 31.7217 -83.6644 154° Southeast 145 167 7,000  Level Jacksonville Center
12:44PM 31.6922 -83.6617 175° South 145 167 7,000  Level Jacksonville Center
12:44PM 31.6819 -83.6542 148° Southeast 145 167 7,000  Level Jacksonville Center
12:45PM 31.6547 -83.6492 171° South 144 166 7,000  Level Jacksonville Center
12:45PM 31.6444 -83.6442 158° South 145 167 7,000  Level Jacksonville Center
12:46PM 31.6153 -83.6392 172° South 141 162 7,000  Level Jacksonville Center
12:46PM 31.6047 -83.6317 149° Southeast 145 167 7,000  Level Jacksonville Center
12:47PM 31.5778 -83.6242 167° South 142 163 7,000  Level Jacksonville Center
12:47PM 31.5672 -83.6217 169° South 145 167 7,000  Level Jacksonville Center
12:48PM 31.5361 -83.6142 168° South 142 163 7,000  Level Jacksonville Center
12:48PM 31.5297 -83.6092 146° Southeast 145 167 7,000  Level Jacksonville Center
12:49PM 31.4986 -83.6042 172° South 143 165 7,000  Level Jacksonville Center
12:49PM 31.4903 -83.5992 153° Southeast 145 167 7,000  Level Jacksonville Center
12:50PM 31.4589 -83.5892 165° South 145 167 7,000  Level Jacksonville Center
12:50PM 31.4528 -83.5867 161° South 145 167 7,000  Level Jacksonville Center
12:51PM 31.4194 -83.5792 169° South 145 167 7,000  Level Jacksonville Center
12:52PM 31.3817 -83.5692 167° South 145 167 7,000  Level Jacksonville Center
12:53PM 31.3400 -83.5542 163° South 146 168 7,000  Level Jacksonville Center
12:54PM 31.3025 -83.5442 167° South 145 167 7,000  Level Jacksonville Center
12:55PM 31.2608 -83.5317 166° South 145 167 7,000  Level Jacksonville Center
12:56PM 31.2256 -83.5194 163° South 144 166 7,000  Level Jacksonville Center
12:57PM 31.1836 -83.5069 166° South 146 168 7,000  Level Jacksonville Center
12:58PM 31.1400 -83.4969 169° South 147 169 7,000  Level Jacksonville Center
12:59PM 31.1044 -83.4822 160° South 148 170 7,000  Level Jacksonville Center
01:00PM 31.0608 -83.4722 169° South 147 169 7,000  Level Jacksonville Center
01:01PM 31.0231 -83.4622 167° South 148 170 7,000  Level Jacksonville Center
01:02PM 30.9794 -83.4475 164° South 148 170 7,000  Level Jacksonville Center
01:03PM 30.9439 -83.4400 170° South 146 168 7,000  Level Jacksonville Center
01:04PM 30.9022 -83.4278 166° South 149 171 7,000  Level Jacksonville Center
01:05PM 30.8583 -83.4128 164° South 148 170 7,000  Level Jacksonville Center
01:06PM 30.8208 -83.4031 167° South 148 170 7,000  Level Jacksonville Center
01:07PM 30.7814 -83.3931 168° South 143 165 7,000  Level Jacksonville Center
01:08PM 30.7436 -83.3808 164° South 144 166 7,000  Level Jacksonville Center
01:09PM 30.7019 -83.3686 166° South 144 166 7,000  Level Jacksonville Center
01:10PM 30.6644 -83.3586 167° South 149 171 7,000  Level Jacksonville Center
01:11PM 30.6228 -83.3439 163° South 148 170 7,000  Level Jacksonville Center
01:12PM 30.5914 -83.3319 162° South 156 180 7,000  Level Jacksonville Center
01:13PM 30.5519 -83.3244 171° South 162 186 7,000  Level Jacksonville Center
01:14PM 30.5122 -83.3097 162° South 162 186 7,000  Level Jacksonville Center
01:15PM 30.4747 -83.3000 167° South 157 181 7,000  Level Jacksonville Center
01:16PM 30.4350 -83.2878 165° South 146 168 7,000  Level Jacksonville Center
01:17PM 30.3953 -83.2756 165° South 146 168 7,000  Level Jacksonville Center
01:19PM 30.3183 -83.2536 166° South 146 168 7,000  Level Jacksonville Center
01:20PM 30.2786 -83.2439 168° South 146 168 7,000  Level Jacksonville Center
01:21PM 30.2411 -83.2317 164° South 146 168 7,000  Level Jacksonville Center
01:22PM 30.2014 -83.2219 168° South 146 168 7,000  Level Jacksonville Center
01:23PM 30.1597 -83.2097 166° South 146 168 7,000  Level Jacksonville Center
01:24PM 30.1222 -83.1975 164° South 146 168 7,000  Level Jacksonville Center
01:25PM 30.0825 -83.1856 165° South 146 168 7,000  Level Jacksonville Center
01:26PM 30.0428 -83.1758 168° South 146 168 7,000  Level Jacksonville Center
01:27PM 30.0031 -83.1731 177° South 146 168 7,000  Level Jacksonville Center
01:28PM 29.9656 -83.1731 180° South 141 162 7,000  Level Jacksonville Center
01:29PM 29.9281 -83.1753 183° South 141 162 7,000  Level Jacksonville Center
01:30PM 29.8883 -83.1753 180° South 141 162 7,000  Level Jacksonville Center
01:31PM 29.8508 -83.1753 180° South 141 162 7,000  Level Jacksonville Center
01:32PM 29.8131 -83.1775 183° South 141 162 7,000  Level Jacksonville Center
01:33PM 29.7756 -83.1772 180° South 141 162 7,000  Level Jacksonville Center
01:34PM 29.7358 -83.1772 180° South 141 162 7,000  Level Jacksonville Center
01:35PM 29.6983 -83.1747 177° South 141 162 7,000  Level Jacksonville Center
01:36PM 29.6608 -83.1625 164° South 141 162 7,000  Level Jacksonville Center
01:37PM 29.6169 -83.1506 167° South 141 162 7,000  Level Jacksonville Center
01:38PM 29.5794 -83.1386 165° South 141 162 7,000  Level Jacksonville Center
01:39PM 29.5397 -83.1289 168° South 146 168 7,000  Level Jacksonville Center
01:40PM 29.5022 -83.1169 165° South 146 168 7,000  Level Jacksonville Center
01:41PM 29.4606 -83.1047 166° South 146 168 7,000  Level Jacksonville Center
01:42PM 29.4208 -83.0953 168° South 146 168 7,000  Level Jacksonville Center
01:43PM 29.3792 -83.0833 166° South 146 168 7,000  Level Jacksonville Center
01:44PM 29.3394 -83.0736 168° South 146 168 7,000  Level Jacksonville Center
01:45PM 29.2997 -83.0639 168° South 146 168 7,000  Level Jacksonville Center
01:46PM 29.2622 -83.0519 164° South 146 168 7,000  Level Jacksonville Center
01:47PM 29.2225 -83.0400 165° South 146 168 7,000  Level Jacksonville Center
01:48PM 29.1831 -83.0306 168° South 146 168 7,000  Level Jacksonville Center
01:49PM 29.1433 -83.0186 165° South 146 168 7,000  Level Jacksonville Center
01:50PM 29.1058 -83.0092 168° South 146 168 7,000 -180 Level Jacksonville Center
01:51PM 29.0639 -82.9969 166° South 146 168 6,700 -300 Descending Jacksonville Center
01:52PM 29.0222 -82.9875 169° South 151 174 6,400 -360 Descending Jacksonville Center
01:53PM 28.9783 -82.9733 164° South 156 180 6,000 -420 Descending Jacksonville Center
01:54PM 28.9347 -82.9614 167° South 161 185 5,600 -360 Descending Jacksonville Center
01:55PM 28.8908 -82.9519 169° South 161 185 5,300 -300 Descending Jacksonville Center
01:56PM 28.8469 -82.9400 167° South 161 185 5,000 -120 Descending Jacksonville Center
01:58PM 28.7667 -82.9167 166° South 147 169 5,000  Level Tampa TRACON
01:59PM 28.7333 -82.9167 180° South 146 168 5,000  Level Tampa TRACON
02:00PM 28.6833 -82.9000 164° South 148 170 5,000  Level Tampa TRACON
02:01PM 28.6500 -82.8833 156° South 151 174 5,000  Level Tampa TRACON
02:01PM 28.6308 -82.8778 166° South 150 173 5,000  Level Miami Center
02:02PM 28.6000 -82.8667 162° South 149 171 5,000  Level Tampa TRACON
02:03PM 28.5667 -82.8667 180° South 148 170 5,000 -120 Level Tampa TRACON
02:04PM 28.5167 -82.8500 164° South 150 173 4,800 -360 Descending Tampa TRACON
02:05PM 28.4833 -82.8500 180° South 162 186 4,400 -420 Descending Tampa TRACON
02:06PM 28.4333 -82.8500 180° South 169 194 4,000 -240 Descending Tampa TRACON
02:07PM 28.4000 -82.8500 180° South 161 185 4,000  Level Tampa TRACON
02:08PM 28.3622 -82.8486 178° South 160 184 4,000  Level Miami Center
02:09PM 28.3167 -82.8500 182° South 153 176 4,000  Level Tampa TRACON
02:10PM 28.2667 -82.8500 180° South 153 176 4,000  Level Tampa TRACON
02:11PM 28.2333 -82.8500 180° South 150 173 4,000  Level Tampa TRACON
02:12PM 28.1833 -82.8333 164° South 150 173 4,000 -180 Level Tampa TRACON
02:13PM 28.1500 -82.8333 180° South 154 177 3,700 -480 Descending Tampa TRACON
02:14PM 28.1000 -82.8167 164° South 177 204 3,100 -480 Descending Tampa TRACON
02:15PM 28.0333 -82.8000 168° South 177 204 2,700 -300 Descending Tampa TRACON
02:16PM 28.0000 -82.8000 180° South 164 189 2,600 -60 Descending Tampa TRACON
02:17PM 27.9667 -82.7833 156° South 155 178 2,600 -300 Level Tampa TRACON
02:18PM 27.9167 -82.7500 149° Southeast 177 204 2,000 -600 Descending Tampa TRACON
02:19PM 27.8833 -82.7333 156° South 161 185 1,500 -540 Descending Tampa TRACON
02:20PM 27.8667 -82.7000 119° Southeast 145 167 1,000 -600 Descending Tampa TRACON
02:21PM 27.8833 -82.6833 41° Northeast 109 125 400 -600 Descending Tampa TRACON
02:23PM 27.9000 -82.6833 North  Level FlightAware Approximate
02:30PM 27.9100 -82.6875 North  Level Estimated
02:31PM 27.9100 -82.6875 North  Level Estimated